createdAt,value
2022-10-05T00:00:30.744Z,17.40
2022-10-05T00:01:30.933Z,17.39
2022-10-05T00:02:31.071Z,17.38
2022-10-05T00:03:31.247Z,17.35
2022-10-05T00:04:31.414Z,17.35
2022-10-05T00:05:31.603Z,17.35
2022-10-05T00:06:31.761Z,17.35
2022-10-05T00:07:31.909Z,17.34
2022-10-05T00:08:32.125Z,17.35
2022-10-05T00:09:32.300Z,17.31
2022-10-05T00:10:32.455Z,17.32
2022-10-05T00:11:32.614Z,17.28
2022-10-05T00:12:32.786Z,17.31
2022-10-05T00:13:32.982Z,17.31
2022-10-05T00:14:33.107Z,17.27
2022-10-05T00:15:33.276Z,17.28
2022-10-05T00:16:33.528Z,17.28
2022-10-05T00:17:33.614Z,17.24
2022-10-05T00:18:33.788Z,17.21
2022-10-05T00:19:33.950Z,17.25
2022-10-05T00:20:34.103Z,17.23
2022-10-05T00:21:34.299Z,17.21
2022-10-05T00:22:34.498Z,17.24
2022-10-05T00:23:34.675Z,17.20
2022-10-05T00:24:34.827Z,17.20
2022-10-05T00:25:34.979Z,17.20
2022-10-05T00:26:35.176Z,17.23
2022-10-05T00:27:35.339Z,17.20
2022-10-05T00:28:35.589Z,17.20
2022-10-05T00:29:35.706Z,17.17
2022-10-05T00:30:35.880Z,17.15
2022-10-05T00:31:36.136Z,17.16
2022-10-05T00:32:36.212Z,17.16
2022-10-05T00:33:36.666Z,17.12
2022-10-05T00:34:36.562Z,17.13
2022-10-05T00:35:36.715Z,17.13
2022-10-05T00:36:36.914Z,17.12
2022-10-05T00:37:37.065Z,17.12
2022-10-05T00:38:37.285Z,17.09
2022-10-05T00:39:37.429Z,17.12
2022-10-05T00:40:37.636Z,17.12
2022-10-05T00:41:37.791Z,17.10
2022-10-05T00:42:38.000Z,17.06
2022-10-05T00:43:38.156Z,17.06
2022-10-05T00:44:38.316Z,17.06
2022-10-05T00:45:38.511Z,17.07
2022-10-05T00:46:38.659Z,17.07
2022-10-05T00:47:38.839Z,17.07
2022-10-05T00:48:39.001Z,17.06
2022-10-05T00:49:39.181Z,17.07
2022-10-05T00:50:39.351Z,17.05
2022-10-05T00:51:39.507Z,17.06
2022-10-05T00:52:39.699Z,17.02
2022-10-05T00:53:39.861Z,17.01
2022-10-05T00:54:40.020Z,16.99
2022-10-05T00:55:40.183Z,16.99
2022-10-05T00:56:40.362Z,17.01
2022-10-05T00:57:40.544Z,16.99
2022-10-05T00:58:40.730Z,16.97
2022-10-05T00:59:40.901Z,16.99
2022-10-05T01:00:41.069Z,16.96
2022-10-05T01:01:41.285Z,16.94
2022-10-05T01:02:41.482Z,16.96
2022-10-05T01:03:41.631Z,16.96
2022-10-05T01:04:41.743Z,16.96
2022-10-05T01:05:41.915Z,16.90
2022-10-05T01:06:42.159Z,16.90
2022-10-05T01:07:42.285Z,16.93
2022-10-05T01:08:42.409Z,16.90
2022-10-05T01:09:42.569Z,16.90
2022-10-05T01:10:42.728Z,16.91
2022-10-05T01:11:42.894Z,16.86
2022-10-05T01:12:43.075Z,16.87
2022-10-05T01:13:43.235Z,16.87
2022-10-05T01:14:43.399Z,16.86
2022-10-05T01:15:43.575Z,16.90
2022-10-05T01:16:44.059Z,16.90
2022-10-05T01:17:43.945Z,16.87
2022-10-05T01:18:44.091Z,16.86
2022-10-05T01:19:44.235Z,16.84
2022-10-05T01:20:44.410Z,16.86
2022-10-05T01:21:44.562Z,16.83
2022-10-05T01:22:44.783Z,16.86
2022-10-05T01:23:44.910Z,16.86
2022-10-05T01:24:45.080Z,16.86
2022-10-05T01:25:45.235Z,16.83
2022-10-05T01:26:45.726Z,16.84
2022-10-05T01:27:45.588Z,16.84
2022-10-05T01:28:45.710Z,16.83
2022-10-05T01:29:45.875Z,16.86
2022-10-05T01:30:46.038Z,16.83
2022-10-05T01:31:46.217Z,16.82
2022-10-05T01:32:46.412Z,16.83
2022-10-05T01:33:46.562Z,16.82
2022-10-05T01:34:46.738Z,16.79
2022-10-05T01:35:46.893Z,16.82
2022-10-05T01:36:47.404Z,16.78
2022-10-05T01:37:47.244Z,16.78
2022-10-05T01:38:47.395Z,16.79
2022-10-05T01:39:47.561Z,16.79
2022-10-05T01:40:47.717Z,16.76
2022-10-05T01:41:47.910Z,16.74
2022-10-05T01:42:48.099Z,16.75
2022-10-05T01:43:48.224Z,16.74
2022-10-05T01:44:48.398Z,16.74
2022-10-05T01:45:48.625Z,16.72
2022-10-05T01:46:49.089Z,16.74
2022-10-05T01:47:48.926Z,16.76
2022-10-05T01:48:49.084Z,16.74
2022-10-05T01:49:49.241Z,16.69
2022-10-05T01:50:49.427Z,16.72
2022-10-05T01:51:49.588Z,16.72
2022-10-05T01:52:49.748Z,16.71
2022-10-05T01:53:49.900Z,16.72
2022-10-05T01:54:50.063Z,16.71
2022-10-05T01:55:50.249Z,16.68
2022-10-05T01:56:50.421Z,16.69
2022-10-05T01:57:50.583Z,16.71
2022-10-05T01:58:50.740Z,16.68
2022-10-05T01:59:50.901Z,16.66
2022-10-05T02:00:51.165Z,16.68
2022-10-05T02:01:51.307Z,16.68
2022-10-05T02:02:51.410Z,16.71
2022-10-05T02:03:51.572Z,16.65
2022-10-05T02:05:06.974Z,16.65
2022-10-05T02:05:52.930Z,16.65
2022-10-05T02:06:52.123Z,16.62
2022-10-05T02:07:52.245Z,16.62
2022-10-05T02:08:52.405Z,16.64
2022-10-05T02:09:52.564Z,16.64
2022-10-05T02:10:52.728Z,16.62
2022-10-05T02:11:52.916Z,16.59
2022-10-05T02:12:53.079Z,16.57
2022-10-05T02:13:53.249Z,16.59
2022-10-05T02:14:53.399Z,16.59
2022-10-05T02:15:53.685Z,16.60
2022-10-05T02:16:53.804Z,16.60
2022-10-05T02:17:53.934Z,16.53
2022-10-05T02:18:54.093Z,16.56
2022-10-05T02:19:54.255Z,16.54
2022-10-05T02:20:54.406Z,16.54
2022-10-05T02:21:54.646Z,16.54
2022-10-05T02:22:54.767Z,16.50
2022-10-05T02:23:54.939Z,16.54
2022-10-05T02:24:55.088Z,16.56
2022-10-05T02:25:55.252Z,16.51
2022-10-05T02:26:55.450Z,16.49
2022-10-05T02:27:55.620Z,16.53
2022-10-05T02:28:55.757Z,16.51
2022-10-05T02:29:55.921Z,16.47
2022-10-05T02:30:56.089Z,16.47
2022-10-05T02:31:56.343Z,16.50
2022-10-05T02:32:56.423Z,16.46
2022-10-05T02:33:56.587Z,16.44
2022-10-05T02:34:56.740Z,16.47
2022-10-05T02:35:56.924Z,16.46
2022-10-05T02:36:57.109Z,16.46
2022-10-05T02:37:57.235Z,16.41
2022-10-05T02:38:57.402Z,16.42
2022-10-05T02:39:57.567Z,16.39
2022-10-05T02:40:57.722Z,16.42
2022-10-05T02:41:57.908Z,16.41
2022-10-05T02:42:58.092Z,16.39
2022-10-05T02:43:58.236Z,16.38
2022-10-05T02:44:58.444Z,16.42
2022-10-05T02:45:58.604Z,16.39
2022-10-05T02:46:58.891Z,16.38
2022-10-05T02:47:58.906Z,16.36
2022-10-05T02:48:59.074Z,16.38
2022-10-05T02:49:59.262Z,16.36
2022-10-05T02:50:59.394Z,16.38
2022-10-05T02:51:59.549Z,16.35
2022-10-05T02:52:59.742Z,16.38
2022-10-05T02:53:59.900Z,16.36
2022-10-05T02:55:00.057Z,16.34
2022-10-05T02:56:00.216Z,16.32
2022-10-05T02:57:00.377Z,16.35
2022-10-05T02:58:00.561Z,16.34
2022-10-05T02:59:00.721Z,16.34
2022-10-05T03:00:00.876Z,16.31
2022-10-05T03:01:01.097Z,16.32
2022-10-05T03:02:01.336Z,16.31
2022-10-05T03:03:01.404Z,16.29
2022-10-05T03:04:01.566Z,16.31
2022-10-05T03:05:01.730Z,16.28
2022-10-05T03:06:01.884Z,16.26
2022-10-05T03:07:02.081Z,16.31
2022-10-05T03:08:02.220Z,16.26
2022-10-05T03:09:02.362Z,16.28
2022-10-05T03:10:02.531Z,16.26
2022-10-05T03:11:02.694Z,16.29
2022-10-05T03:12:02.883Z,16.29
2022-10-05T03:13:03.038Z,16.23
2022-10-05T03:14:03.208Z,16.28
2022-10-05T03:15:03.367Z,16.25
2022-10-05T03:16:03.583Z,16.21
2022-10-05T03:17:03.742Z,16.23
2022-10-05T03:18:03.889Z,16.21
2022-10-05T03:19:04.050Z,16.26
2022-10-05T03:20:04.270Z,16.20
2022-10-05T03:21:04.401Z,16.25
2022-10-05T03:22:04.590Z,16.20
2022-10-05T03:23:04.734Z,16.21
2022-10-05T03:24:04.908Z,16.21
2022-10-05T03:25:05.066Z,16.21
2022-10-05T03:26:05.258Z,16.20
2022-10-05T03:27:05.435Z,16.20
2022-10-05T03:28:05.684Z,16.23
2022-10-05T03:29:05.777Z,16.21
2022-10-05T03:30:05.971Z,16.20
2022-10-05T03:31:06.211Z,16.16
2022-10-05T03:32:06.310Z,16.20
2022-10-05T03:33:06.478Z,16.17
2022-10-05T03:34:06.640Z,16.19
2022-10-05T03:35:06.853Z,16.19
2022-10-05T03:36:07.009Z,16.17
2022-10-05T03:37:07.217Z,16.19
2022-10-05T03:38:07.392Z,16.19
2022-10-05T03:39:07.559Z,16.14
2022-10-05T03:40:07.720Z,16.17
2022-10-05T03:41:07.889Z,16.17
2022-10-05T03:42:08.041Z,16.19
2022-10-05T03:43:08.222Z,16.17
2022-10-05T03:44:08.385Z,16.14
2022-10-05T03:45:08.553Z,16.16
2022-10-05T03:46:08.743Z,16.13
2022-10-05T03:47:08.901Z,16.13
2022-10-05T03:48:09.089Z,16.14
2022-10-05T03:49:09.249Z,16.16
2022-10-05T03:50:09.409Z,16.16
2022-10-05T03:51:09.564Z,16.16
2022-10-05T03:52:09.768Z,16.14
2022-10-05T03:53:09.952Z,16.14
2022-10-05T03:54:10.111Z,16.13
2022-10-05T03:55:10.272Z,16.14
2022-10-05T03:56:10.428Z,16.13
2022-10-05T03:57:10.577Z,16.14
2022-10-05T03:58:10.840Z,16.13
2022-10-05T03:59:10.964Z,16.13
2022-10-05T04:00:11.122Z,16.11
2022-10-05T04:01:11.368Z,16.14
2022-10-05T04:02:11.486Z,16.10
2022-10-05T04:03:11.647Z,16.14
2022-10-05T04:04:11.811Z,16.13
2022-10-05T04:05:11.969Z,16.13
2022-10-05T04:06:12.201Z,16.11
2022-10-05T04:07:12.332Z,16.11
2022-10-05T04:08:12.553Z,16.11
2022-10-05T04:09:12.710Z,16.11
2022-10-05T04:10:12.910Z,16.10
2022-10-05T04:11:13.083Z,16.13
2022-10-05T04:12:13.247Z,16.13
2022-10-05T04:13:13.420Z,16.10
2022-10-05T04:14:13.570Z,16.10
2022-10-05T04:15:17.986Z,16.11
2022-10-05T04:16:14.989Z,16.11
2022-10-05T04:18:29.133Z,16.05
2022-10-05T04:19:29.314Z,16.04
2022-10-05T04:20:29.522Z,16.02
2022-10-05T04:21:29.685Z,15.99
2022-10-05T04:22:29.918Z,16.01
2022-10-05T04:23:30.044Z,16.02
2022-10-05T04:24:30.204Z,16.04
2022-10-05T04:25:30.379Z,16.02
2022-10-05T04:26:30.567Z,16.02
2022-10-05T04:27:30.725Z,16.01
2022-10-05T04:28:32.387Z,15.98
2022-10-05T04:29:31.061Z,16.04
2022-10-05T04:30:31.235Z,16.02
2022-10-05T04:31:31.467Z,16.02
2022-10-05T04:32:31.587Z,15.99
2022-10-05T04:33:31.745Z,16.01
2022-10-05T04:34:31.914Z,16.01
2022-10-05T04:35:32.064Z,16.01
2022-10-05T04:36:32.279Z,16.01
2022-10-05T04:37:32.459Z,15.98
2022-10-05T04:38:32.629Z,16.01
2022-10-05T04:39:32.788Z,16.01
2022-10-05T04:40:32.955Z,15.99
2022-10-05T04:41:33.126Z,16.01
2022-10-05T04:42:33.284Z,16.02
2022-10-05T04:43:33.440Z,15.99
2022-10-05T04:44:33.594Z,15.98
2022-10-05T04:45:33.770Z,16.01
2022-10-05T04:46:34.047Z,16.02
2022-10-05T04:47:34.089Z,15.99
2022-10-05T04:48:34.285Z,16.01
2022-10-05T04:49:34.452Z,15.96
2022-10-05T04:50:34.596Z,15.98
2022-10-05T04:51:34.797Z,15.98
2022-10-05T04:52:34.924Z,15.99
2022-10-05T04:53:35.112Z,16.01
2022-10-05T04:54:35.263Z,15.99
2022-10-05T04:55:35.462Z,15.98
2022-10-05T04:56:35.634Z,15.98
2022-10-05T04:57:35.799Z,15.98
2022-10-05T04:58:40.020Z,15.99
2022-10-05T04:59:37.118Z,15.94
2022-10-05T05:00:36.342Z,15.98
2022-10-05T05:01:36.514Z,15.95
2022-10-05T05:02:36.635Z,15.96
2022-10-05T05:03:36.843Z,15.96
2022-10-05T05:04:36.968Z,15.99
2022-10-05T05:05:48.345Z,15.99
2022-10-05T05:06:38.366Z,15.98
2022-10-05T05:07:37.549Z,15.98
2022-10-05T05:08:37.685Z,15.95
2022-10-05T05:09:37.888Z,15.96
2022-10-05T05:10:38.045Z,15.96
2022-10-05T05:11:38.204Z,15.96
2022-10-05T05:12:38.378Z,15.98
2022-10-05T05:13:38.540Z,15.95
2022-10-05T05:14:38.697Z,15.96
2022-10-05T05:15:38.850Z,15.98
2022-10-05T05:16:39.049Z,15.95
2022-10-05T05:17:39.237Z,15.96
2022-10-05T05:18:39.396Z,15.94
2022-10-05T05:19:39.579Z,15.96
2022-10-05T05:20:39.744Z,15.94
2022-10-05T05:21:39.893Z,15.92
2022-10-05T05:22:40.090Z,15.92
2022-10-05T05:23:40.230Z,15.94
2022-10-05T05:24:40.391Z,15.96
2022-10-05T05:25:40.551Z,15.95
2022-10-05T05:26:40.713Z,15.94
2022-10-05T05:27:40.878Z,15.95
2022-10-05T05:28:41.126Z,15.96
2022-10-05T05:29:41.221Z,15.94
2022-10-05T05:30:41.406Z,15.94
2022-10-05T05:31:41.670Z,15.94
2022-10-05T05:32:41.751Z,15.95
2022-10-05T05:33:41.925Z,15.95
2022-10-05T05:34:42.083Z,15.94
2022-10-05T05:35:42.259Z,15.94
2022-10-05T05:36:42.435Z,15.96
2022-10-05T05:37:42.614Z,15.92
2022-10-05T05:38:42.803Z,15.94
2022-10-05T05:39:42.944Z,15.96
2022-10-05T05:40:43.180Z,15.95
2022-10-05T05:41:43.330Z,15.89
2022-10-05T05:42:43.494Z,15.91
2022-10-05T05:43:43.677Z,15.94
2022-10-05T05:44:43.849Z,15.92
2022-10-05T05:45:44.001Z,15.94
2022-10-05T05:47:02.792Z,15.92
2022-10-05T05:47:45.405Z,15.94
2022-10-05T05:48:44.573Z,15.92
2022-10-05T05:49:44.725Z,15.92
2022-10-05T05:50:44.900Z,15.94
2022-10-05T05:51:45.075Z,15.94
2022-10-05T05:52:45.257Z,15.92
2022-10-05T05:53:45.456Z,15.96
2022-10-05T05:54:45.615Z,15.95
2022-10-05T05:55:45.785Z,15.94
2022-10-05T05:56:46.204Z,15.96
2022-10-05T05:57:46.130Z,15.94
2022-10-05T05:58:46.362Z,15.99
2022-10-05T05:59:46.479Z,15.96
2022-10-05T06:00:46.663Z,15.96
2022-10-05T06:01:46.908Z,15.99
2022-10-05T06:02:47.192Z,15.96
2022-10-05T06:03:47.182Z,15.98
2022-10-05T06:04:47.315Z,15.96
2022-10-05T06:05:47.481Z,15.96
2022-10-05T06:06:48.129Z,15.96
2022-10-05T06:07:47.843Z,15.98
2022-10-05T06:08:48.046Z,15.98
2022-10-05T06:09:48.183Z,16.01
2022-10-05T06:10:48.363Z,16.02
2022-10-05T06:11:48.537Z,15.98
2022-10-05T06:12:48.766Z,16.04
2022-10-05T06:13:48.928Z,15.99
2022-10-05T06:14:49.076Z,16.04
2022-10-05T06:15:49.279Z,16.04
2022-10-05T06:16:49.975Z,16.01
2022-10-05T06:17:49.648Z,16.04
2022-10-05T06:18:49.795Z,16.02
2022-10-05T06:19:49.998Z,16.02
2022-10-05T06:20:50.150Z,16.02
2022-10-05T06:21:50.322Z,16.05
2022-10-05T06:22:50.517Z,16.09
2022-10-05T06:23:50.655Z,16.07
2022-10-05T06:24:50.835Z,16.09
2022-10-05T06:25:50.998Z,16.09
2022-10-05T06:26:51.181Z,16.11
2022-10-05T06:27:51.369Z,16.09
2022-10-05T06:28:51.526Z,16.09
2022-10-05T06:29:51.702Z,16.13
2022-10-05T06:30:51.892Z,16.11
2022-10-05T06:31:56.480Z,16.13
2022-10-05T06:32:53.264Z,16.14
2022-10-05T06:33:52.439Z,16.11
2022-10-05T06:34:52.624Z,16.16
2022-10-05T06:35:52.780Z,16.20
2022-10-05T06:36:52.950Z,16.21
2022-10-05T06:37:53.115Z,16.26
2022-10-05T06:38:53.311Z,16.29
2022-10-05T06:39:55.478Z,16.35
2022-10-05T06:40:54.633Z,16.39
2022-10-05T06:41:53.782Z,16.42
2022-10-05T06:42:53.974Z,16.44
2022-10-05T06:43:54.195Z,16.51
2022-10-05T06:44:54.322Z,16.56
2022-10-05T06:45:54.557Z,16.59
2022-10-05T06:46:54.697Z,16.57
2022-10-05T06:47:54.887Z,16.66
2022-10-05T06:48:55.061Z,16.66
2022-10-05T06:49:55.205Z,16.72
2022-10-05T06:50:55.385Z,16.72
2022-10-05T06:51:55.565Z,16.76
2022-10-05T06:52:55.735Z,16.78
2022-10-05T06:53:55.941Z,16.83
2022-10-05T06:54:56.109Z,16.84
2022-10-05T06:55:56.267Z,16.89
2022-10-05T06:56:56.427Z,16.93
2022-10-05T06:57:56.607Z,16.96
2022-10-05T06:58:56.816Z,16.97
2022-10-05T06:59:56.964Z,16.99
2022-10-05T07:00:57.220Z,17.05
2022-10-05T07:01:57.372Z,17.02
2022-10-05T07:02:57.462Z,17.09
2022-10-05T07:03:57.673Z,17.12
2022-10-05T07:04:57.818Z,17.15
2022-10-05T07:05:57.980Z,17.17
2022-10-05T07:06:58.155Z,17.24
2022-10-05T07:07:58.305Z,17.23
2022-10-05T07:08:58.440Z,17.28
2022-10-05T07:09:58.664Z,17.31
2022-10-05T07:10:58.790Z,17.35
2022-10-05T07:12:04.523Z,17.38
2022-10-05T07:13:00.120Z,17.40
2022-10-05T07:13:59.271Z,17.42
2022-10-05T07:14:59.467Z,17.47
2022-10-05T07:15:59.643Z,17.50
2022-10-05T07:16:59.852Z,17.50
2022-10-05T07:18:00.008Z,17.57
2022-10-05T07:19:00.185Z,17.58
2022-10-05T07:20:00.374Z,17.61
2022-10-05T07:21:00.537Z,17.64
2022-10-05T07:22:00.722Z,17.68
2022-10-05T07:23:00.853Z,17.71
2022-10-05T07:24:01.033Z,17.78
2022-10-05T07:25:01.214Z,17.76
2022-10-05T07:26:01.414Z,17.75
2022-10-05T07:27:01.560Z,17.80
2022-10-05T07:28:01.847Z,17.83
2022-10-05T07:29:01.942Z,17.85
2022-10-05T07:30:02.131Z,17.86
2022-10-05T07:31:02.318Z,17.92
2022-10-05T07:32:02.451Z,17.89
2022-10-05T07:33:02.630Z,17.95
2022-10-05T07:34:02.828Z,17.95
2022-10-05T07:35:02.968Z,17.98
2022-10-05T07:36:03.152Z,18.05
2022-10-05T07:37:03.327Z,18.04
2022-10-05T07:38:03.510Z,18.08
2022-10-05T07:39:03.708Z,18.12
2022-10-05T07:40:03.871Z,18.15
2022-10-05T07:41:04.050Z,18.19
2022-10-05T07:42:04.234Z,18.20
2022-10-05T07:43:04.430Z,18.23
2022-10-05T07:44:06.785Z,18.30
2022-10-05T07:45:05.771Z,18.30
2022-10-05T07:46:05.003Z,18.37
2022-10-05T07:47:05.092Z,18.42
2022-10-05T07:48:05.314Z,18.48
2022-10-05T07:49:05.465Z,18.54
2022-10-05T07:50:05.602Z,18.58
2022-10-05T07:51:05.803Z,18.63
2022-10-05T07:52:05.935Z,18.68
2022-10-05T07:53:06.120Z,18.71
2022-10-05T07:54:06.324Z,18.73
2022-10-05T07:55:06.474Z,18.81
2022-10-05T07:56:06.625Z,18.81
2022-10-05T07:57:06.814Z,18.83
2022-10-05T07:58:07.016Z,18.94
2022-10-05T07:59:07.154Z,19.00
2022-10-05T08:00:07.323Z,19.06
2022-10-05T08:01:07.483Z,19.08
2022-10-05T08:02:07.782Z,19.18
2022-10-05T08:03:07.972Z,19.21
2022-10-05T08:04:08.023Z,19.26
2022-10-05T08:05:08.208Z,19.30
2022-10-05T08:06:08.386Z,19.31
2022-10-05T08:07:08.589Z,19.34
2022-10-05T08:08:08.743Z,19.31
2022-10-05T08:09:08.918Z,19.34
2022-10-05T08:10:09.107Z,19.37
2022-10-05T08:11:09.299Z,19.36
2022-10-05T08:12:09.489Z,19.37
2022-10-05T08:13:09.629Z,19.37
2022-10-05T08:14:09.811Z,19.45
2022-10-05T08:15:10.017Z,19.43
2022-10-05T08:16:10.180Z,19.43
2022-10-05T08:17:10.361Z,19.46
2022-10-05T08:18:10.531Z,19.48
2022-10-05T08:19:10.718Z,19.49
2022-10-05T08:20:10.903Z,19.53
2022-10-05T08:21:11.102Z,19.56
2022-10-05T08:22:11.289Z,19.59
2022-10-05T08:23:11.463Z,19.63
2022-10-05T08:24:11.643Z,19.66
2022-10-05T08:25:11.827Z,19.68
2022-10-05T08:26:12.035Z,19.71
2022-10-05T08:27:12.180Z,19.74
2022-10-05T08:28:12.403Z,19.75
2022-10-05T08:29:13.926Z,19.86
2022-10-05T08:30:12.698Z,19.89
2022-10-05T08:31:12.941Z,19.89
2022-10-05T08:32:13.055Z,19.94
2022-10-05T08:33:13.235Z,19.98
2022-10-05T08:34:13.396Z,20.05
2022-10-05T08:35:13.555Z,20.11
2022-10-05T08:36:13.764Z,20.15
2022-10-05T08:37:13.926Z,20.14
2022-10-05T08:38:14.117Z,20.20
2022-10-05T08:39:14.311Z,20.27
2022-10-05T08:40:14.504Z,20.30
2022-10-05T08:41:14.659Z,20.31
2022-10-05T08:42:14.847Z,20.38
2022-10-05T08:43:15.008Z,20.41
2022-10-05T08:44:15.198Z,20.45
2022-10-05T08:45:15.359Z,20.49
2022-10-05T08:46:15.598Z,20.57
2022-10-05T08:47:15.699Z,20.61
2022-10-05T08:48:15.871Z,20.70
2022-10-05T08:49:16.030Z,20.75
2022-10-05T08:50:16.219Z,20.79
2022-10-05T08:51:16.415Z,20.84
2022-10-05T08:52:16.591Z,20.84
2022-10-05T08:53:16.783Z,20.88
2022-10-05T08:54:16.963Z,20.91
2022-10-05T08:55:17.163Z,20.89
2022-10-05T08:56:20.122Z,21.00
2022-10-05T08:57:17.524Z,21.01
2022-10-05T08:58:17.704Z,21.04
2022-10-05T08:59:17.868Z,21.06
2022-10-05T09:00:18.069Z,21.11
2022-10-05T09:01:18.274Z,21.14
2022-10-05T09:02:18.399Z,21.18
2022-10-05T09:03:18.523Z,21.19
2022-10-05T09:04:18.724Z,21.23
2022-10-05T09:05:18.862Z,21.23
2022-10-05T09:06:19.049Z,21.26
2022-10-05T09:07:19.247Z,21.31
2022-10-05T09:08:19.397Z,21.32
2022-10-05T09:09:19.564Z,21.34
2022-10-05T09:10:19.779Z,21.37
2022-10-05T09:11:19.888Z,21.37
2022-10-05T09:12:20.098Z,21.42
2022-10-05T09:13:20.237Z,21.39
2022-10-05T09:14:20.450Z,21.45
2022-10-05T09:15:25.729Z,21.50
2022-10-05T09:16:21.866Z,21.49
2022-10-05T09:17:20.940Z,21.54
2022-10-05T09:18:21.120Z,21.56
2022-10-05T09:19:22.256Z,21.59
2022-10-05T09:20:21.459Z,21.59
2022-10-05T09:21:21.656Z,21.59
2022-10-05T09:22:21.831Z,21.63
2022-10-05T09:23:22.054Z,21.64
2022-10-05T09:24:22.202Z,21.68
2022-10-05T09:25:22.396Z,21.63
2022-10-05T09:26:22.582Z,21.69
2022-10-05T09:27:22.732Z,21.69
2022-10-05T09:28:23.005Z,21.68
2022-10-05T09:29:23.075Z,21.72
2022-10-05T09:30:23.274Z,21.74
2022-10-05T09:31:23.472Z,21.72
2022-10-05T09:32:23.615Z,21.75
2022-10-05T09:33:23.804Z,21.72
2022-10-05T09:34:23.955Z,21.74
2022-10-05T09:35:24.109Z,21.74
2022-10-05T09:36:24.316Z,21.75
2022-10-05T09:37:24.457Z,21.77
2022-10-05T09:38:24.645Z,21.77
2022-10-05T09:39:24.829Z,21.77
2022-10-05T09:40:25.010Z,21.77
2022-10-05T09:41:25.179Z,21.84
2022-10-05T09:42:25.347Z,21.82
2022-10-05T09:43:25.529Z,21.92
2022-10-05T09:44:25.697Z,21.99
2022-10-05T09:45:25.886Z,22.06
2022-10-05T09:46:26.113Z,22.15
2022-10-05T09:47:26.230Z,22.18
2022-10-05T09:48:26.400Z,22.27
2022-10-05T09:49:26.579Z,22.33
2022-10-05T09:50:26.772Z,22.37
2022-10-05T09:51:26.951Z,22.49
2022-10-05T09:52:27.120Z,22.56
2022-10-05T09:53:27.292Z,22.70
2022-10-05T09:54:27.473Z,22.75
2022-10-05T09:55:27.651Z,22.80
2022-10-05T09:57:27.996Z,22.93
2022-10-05T09:58:28.186Z,22.99
2022-10-05T09:59:28.354Z,23.08
2022-10-05T10:00:28.534Z,23.17
2022-10-05T10:01:33.750Z,23.20
2022-10-05T10:02:29.913Z,23.19
2022-10-05T10:03:29.069Z,23.20
2022-10-05T10:04:29.175Z,23.22
2022-10-05T10:05:29.368Z,23.23
2022-10-05T10:06:29.577Z,23.24
2022-10-05T10:07:29.726Z,23.29
2022-10-05T10:08:29.913Z,23.31
2022-10-05T10:09:30.951Z,23.29
2022-10-05T10:10:30.266Z,23.29
2022-10-05T10:11:30.469Z,23.30
2022-10-05T10:12:30.643Z,23.30
2022-10-05T10:13:30.828Z,23.35
2022-10-05T10:14:31.010Z,23.31
2022-10-05T10:15:31.219Z,23.35
2022-10-05T10:16:31.381Z,23.31
2022-10-05T10:17:31.519Z,23.30
2022-10-05T10:19:46.786Z,23.29
2022-10-05T10:20:46.954Z,23.24
2022-10-05T10:21:47.370Z,23.23
2022-10-05T10:22:47.281Z,23.22
2022-10-05T10:23:47.457Z,23.23
2022-10-05T10:24:47.646Z,23.24
2022-10-05T10:25:47.785Z,23.20
2022-10-05T10:26:47.969Z,23.23
2022-10-05T10:27:52.341Z,23.27
2022-10-05T10:28:48.357Z,23.24
2022-10-05T10:29:48.496Z,23.24
2022-10-05T10:30:48.710Z,23.27
2022-10-05T10:31:49.378Z,23.27
2022-10-05T10:32:49.031Z,23.27
2022-10-05T10:33:49.231Z,23.26
2022-10-05T10:34:49.370Z,23.24
2022-10-05T10:35:49.553Z,23.23
2022-10-05T10:36:50.154Z,23.19
2022-10-05T10:37:50.173Z,23.17
2022-10-05T10:38:50.131Z,23.16
2022-10-05T10:39:50.273Z,23.16
2022-10-05T10:40:50.466Z,23.09
2022-10-05T10:41:50.622Z,23.12
2022-10-05T10:42:50.802Z,23.11
2022-10-05T10:43:51.012Z,23.12
2022-10-05T10:44:51.163Z,23.09
2022-10-05T10:45:51.315Z,23.12
2022-10-05T10:46:51.961Z,23.14
2022-10-05T10:47:51.675Z,23.12
2022-10-05T10:48:52.410Z,23.19
2022-10-05T10:49:52.031Z,23.19
2022-10-05T10:50:52.216Z,23.22
2022-10-05T10:51:52.395Z,23.24
2022-10-05T10:52:52.546Z,23.26
2022-10-05T10:53:52.761Z,23.31
2022-10-05T10:54:52.919Z,23.38
2022-10-05T10:55:53.071Z,23.44
2022-10-05T10:56:53.235Z,23.48
2022-10-05T10:57:53.396Z,23.54
2022-10-05T10:58:53.569Z,23.60
2022-10-05T10:59:53.711Z,23.64
2022-10-05T11:00:53.889Z,23.74
2022-10-05T11:01:54.094Z,23.81
2022-10-05T11:02:54.312Z,23.85
2022-10-05T11:03:54.421Z,23.94
2022-10-05T11:04:54.580Z,23.98
2022-10-05T11:05:54.751Z,24.08
2022-10-05T11:06:54.911Z,24.11
2022-10-05T11:07:55.071Z,24.19
2022-10-05T11:08:55.252Z,24.27
2022-10-05T11:09:55.392Z,24.32
2022-10-05T11:10:55.551Z,24.41
2022-10-05T11:11:55.706Z,24.47
2022-10-05T11:12:55.916Z,24.54
2022-10-05T11:13:56.084Z,24.61
2022-10-05T11:14:56.245Z,24.66
2022-10-05T11:15:56.492Z,24.71
2022-10-05T11:16:56.605Z,24.79
2022-10-05T11:17:56.784Z,24.87
2022-10-05T11:18:56.974Z,24.94
2022-10-05T11:20:03.959Z,25.03
2022-10-05T11:20:58.308Z,25.12
2022-10-05T11:21:57.516Z,25.20
2022-10-05T11:22:57.693Z,25.25
2022-10-05T11:23:57.877Z,25.31
2022-10-05T11:24:58.019Z,25.39
2022-10-05T11:25:58.217Z,25.40
2022-10-05T11:26:58.408Z,25.46
2022-10-05T11:27:58.591Z,25.55
2022-10-05T11:28:58.754Z,25.59
2022-10-05T11:29:58.931Z,25.71
2022-10-05T11:30:59.166Z,25.80
2022-10-05T11:31:59.300Z,25.91
2022-10-05T11:32:59.444Z,26.03
2022-10-05T11:33:59.622Z,26.17
2022-10-05T11:34:59.801Z,26.30
2022-10-05T11:35:59.989Z,26.43
2022-10-05T11:37:00.180Z,26.54
2022-10-05T11:38:00.331Z,26.61
2022-10-05T11:39:00.513Z,26.65
2022-10-05T11:40:00.702Z,26.62
2022-10-05T11:41:00.892Z,26.60
2022-10-05T11:42:01.044Z,26.57
2022-10-05T11:43:01.250Z,26.57
2022-10-05T11:44:06.103Z,26.51
2022-10-05T11:45:02.575Z,26.50
2022-10-05T11:46:01.819Z,26.50
2022-10-05T11:47:01.893Z,26.43
2022-10-05T11:48:02.056Z,26.40
2022-10-05T11:49:02.246Z,26.38
2022-10-05T11:50:02.396Z,26.33
2022-10-05T11:51:02.588Z,26.30
2022-10-05T11:52:02.770Z,26.27
2022-10-05T11:53:03.017Z,26.24
2022-10-05T11:54:03.148Z,26.23
2022-10-05T11:55:10.890Z,26.15
2022-10-05T11:56:04.469Z,26.15
2022-10-05T11:57:03.629Z,26.13
2022-10-05T11:58:03.779Z,26.06
2022-10-05T11:59:03.970Z,26.02
2022-10-05T12:00:04.194Z,25.99
2022-10-05T12:01:04.290Z,25.93
2022-10-05T12:02:04.445Z,25.91
2022-10-05T12:03:04.739Z,25.88
2022-10-05T12:04:04.883Z,25.86
2022-10-05T12:05:04.963Z,25.84
2022-10-05T12:06:05.134Z,25.81
2022-10-05T12:07:05.324Z,25.84
2022-10-05T12:08:05.514Z,25.86
2022-10-05T12:09:05.674Z,25.90
2022-10-05T12:10:05.866Z,25.91
2022-10-05T12:11:06.045Z,26.03
2022-10-05T12:12:06.234Z,26.09
2022-10-05T12:13:06.418Z,26.13
2022-10-05T12:14:06.618Z,26.23
2022-10-05T12:15:06.765Z,26.27
2022-10-05T12:16:06.970Z,26.36
2022-10-05T12:17:07.117Z,26.43
2022-10-05T12:18:07.297Z,26.46
2022-10-05T12:19:07.488Z,26.55
2022-10-05T12:20:07.661Z,26.61
2022-10-05T12:21:07.858Z,26.69
2022-10-05T12:22:08.000Z,26.74
2022-10-05T12:23:08.179Z,26.80
2022-10-05T12:24:08.390Z,26.91
2022-10-05T12:25:08.532Z,26.97
2022-10-05T12:26:09.241Z,27.08
2022-10-05T12:27:08.929Z,27.14
2022-10-05T12:28:09.107Z,27.18
2022-10-05T12:29:09.242Z,27.25
2022-10-05T12:30:09.436Z,27.30
2022-10-05T12:31:09.633Z,27.37
2022-10-05T12:32:09.768Z,27.44
2022-10-05T12:33:09.913Z,27.54
2022-10-05T12:34:10.103Z,27.62
2022-10-05T12:35:10.267Z,27.69
2022-10-05T12:36:10.426Z,27.76
2022-10-05T12:37:10.594Z,27.82
2022-10-05T12:38:10.794Z,27.91
2022-10-05T12:39:10.965Z,27.97
2022-10-05T12:40:12.092Z,28.04
2022-10-05T12:41:11.327Z,28.11
2022-10-05T12:42:11.505Z,28.16
2022-10-05T12:43:11.698Z,28.26
2022-10-05T12:44:11.864Z,28.34
2022-10-05T12:45:12.047Z,28.42
2022-10-05T12:46:12.250Z,28.45
2022-10-05T12:47:12.420Z,28.53
2022-10-05T12:48:12.599Z,28.60
2022-10-05T12:49:12.749Z,28.66
2022-10-05T12:50:12.963Z,28.72
2022-10-05T12:51:13.106Z,28.75
2022-10-05T12:52:13.316Z,28.79
2022-10-05T12:53:13.452Z,28.83
2022-10-05T12:54:13.640Z,28.88
2022-10-05T12:55:13.822Z,28.91
2022-10-05T12:56:14.447Z,28.97
2022-10-05T12:57:14.183Z,29.03
2022-10-05T12:58:14.323Z,29.05